Time;durP1;ratioP1;P1;durP2;ratioP2;P2;SDS_P1;SDS_P2;PMS_P1;PMS_P2;Temp;Humidity;BMP_temperature;BMP_pressure;BME280_temperature;BME280_humidity;BME280_pressure;Samples;Min_cycle;Max_cycle;Signal;HPM_P1;HPM_P2
2023/01/30 00:01:30;;;;;;;19.83;10.63;;;6.00;99.90;;;;;;4992297;28;20058;-46
2023/01/30 00:03:56;;;;;;;20.20;11.65;;;6.00;99.90;;;;;;4991453;28;20069;-46
2023/01/30 00:06:22;;;;;;;26.38;10.85;;;6.00;99.90;;;;;;5004641;28;20132;-52
2023/01/30 00:08:48;;;;;;;23.23;10.20;;;6.10;99.90;;;;;;5013765;28;20052;-46
2023/01/30 00:11:15;;;;;;;19.77;10.27;;;6.00;99.90;;;;;;5008230;28;20046;-46
2023/01/30 00:13:42;;;;;;;19.85;10.52;;;6.10;99.90;;;;;;5014328;28;20072;-47
2023/01/30 00:16:08;;;;;;;15.05;9.43;;;6.10;99.90;;;;;;5014630;28;20052;-45
2023/01/30 00:18:38;;;;;;;22.23;9.43;;;6.00;99.90;;;;;;5013861;28;20054;-52
2023/01/30 00:21:05;;;;;;;19.70;10.13;;;6.10;99.90;;;;;;5013497;28;20123;-49
2023/01/30 00:23:33;;;;;;;19.17;10.07;;;6.20;99.90;;;;;;5015267;28;20057;-47
2023/01/30 00:25:59;;;;;;;23.42;10.77;;;6.20;99.90;;;;;;5014983;28;20053;-48
2023/01/30 00:28:24;;;;;;;24.10;9.52;;;6.20;99.90;;;;;;5013633;28;20838;-47
2023/01/30 00:30:52;;;;;;;20.23;9.85;;;6.10;99.90;;;;;;5014600;28;20057;-50
2023/01/30 00:33:19;;;;;;;22.42;9.82;;;6.20;99.90;;;;;;5015537;28;20089;-46
2023/01/30 00:35:46;;;;;;;18.48;8.82;;;6.10;99.90;;;;;;5014040;28;20515;-46
2023/01/30 00:38:11;;;;;;;19.02;9.02;;;6.10;99.90;;;;;;5013562;28;20461;-47
2023/01/30 00:40:37;;;;;;;20.67;8.82;;;6.30;99.90;;;;;;5015266;28;20547;-50
2023/01/30 00:48:33;;;;;;;22.70;9.10;;;6.30;99.90;;;;;;5014600;28;20064;-45
2023/01/30 00:50:59;;;;;;;21.90;8.55;;;6.20;99.90;;;;;;4996762;28;20076;-53
2023/01/30 00:53:25;;;;;;;20.73;8.82;;;6.30;99.90;;;;;;5014640;28;20056;-45
2023/01/30 00:55:52;;;;;;;26.85;9.80;;;6.20;99.90;;;;;;5015228;28;20397;-51
2023/01/30 00:58:18;;;;;;;21.77;8.88;;;6.20;99.90;;;;;;5013974;28;20104;-47
2023/01/30 01:00:44;;;;;;;18.58;8.82;;;6.20;99.90;;;;;;5014406;28;20045;-44
2023/01/30 01:03:09;;;;;;;21.67;9.38;;;6.20;99.90;;;;;;5014977;28;20041;-50
2023/01/30 01:05:35;;;;;;;20.10;9.23;;;6.30;99.90;;;;;;5014828;28;20152;-50
2023/01/30 01:08:02;;;;;;;24.95;8.82;;;6.20;99.90;;;;;;5028929;28;20076;-44
2023/01/30 01:10:28;;;;;;;23.77;9.60;;;6.30;99.90;;;;;;5008246;28;20068;-43
2023/01/30 01:12:54;;;;;;;21.58;10.27;;;6.40;99.90;;;;;;5007501;28;20359;-43
2023/01/30 01:15:21;;;;;;;24.13;9.35;;;6.20;99.90;;;;;;5014439;28;20124;-49
2023/01/30 01:17:48;;;;;;;27.00;10.15;;;6.30;99.90;;;;;;5011882;28;20412;-48
2023/01/30 01:20:14;;;;;;;27.25;10.32;;;6.20;99.90;;;;;;5014085;28;20044;-44
2023/01/30 01:22:40;;;;;;;26.27;9.18;;;6.40;99.90;;;;;;5014265;28;20049;-49
2023/01/30 01:25:06;;;;;;;26.13;10.13;;;6.40;99.90;;;;;;5014239;28;20060;-50
2023/01/30 01:27:31;;;;;;;29.60;9.27;;;6.20;99.90;;;;;;5013308;28;20060;-47
2023/01/30 01:29:57;;;;;;;20.23;8.98;;;6.20;99.90;;;;;;5014394;28;20045;-50
2023/01/30 01:32:23;;;;;;;22.75;9.43;;;6.20;99.90;;;;;;5028609;28;20161;-50
2023/01/30 01:34:49;;;;;;;24.17;9.25;;;6.40;99.90;;;;;;5013951;28;20413;-45
2023/01/30 01:37:15;;;;;;;25.45;10.55;;;6.20;99.90;;;;;;5013205;28;20545;-46
2023/01/30 01:42:28;;;;;;;21.02;9.10;;;6.20;99.90;;;;;;5011582;28;20578;-49
2023/01/30 01:45:07;;;;;;;27.52;10.25;;;6.40;99.90;;;;;;5013260;28;20416;-50
2023/01/30 01:47:34;;;;;;;21.45;8.98;;;6.40;99.90;;;;;;5012341;28;20064;-46
2023/01/30 01:50:02;;;;;;;23.85;9.15;;;6.40;99.90;;;;;;5028558;28;20045;-50
2023/01/30 01:52:28;;;;;;;21.15;9.25;;;6.20;99.90;;;;;;5013791;28;20057;-48
2023/01/30 01:55:01;;;;;;;25.85;9.05;;;6.40;99.90;;;;;;5013647;28;20239;-45
2023/01/30 01:57:46;;;;;;;22.58;8.88;;;6.30;99.90;;;;;;5007842;28;20066;-47
2023/01/30 02:00:15;;;;;;;23.33;8.88;;;6.40;99.90;;;;;;5009570;28;20103;-45
2023/01/30 02:03:02;;;;;;;25.52;8.63;;;6.30;99.90;;;;;;5028039;28;20057;-50
2023/01/30 02:05:32;;;;;;;29.80;10.90;;;6.50;99.90;;;;;;5031691;28;20058;-48
2023/01/30 02:08:06;;;;;;;25.00;8.73;;;6.50;99.90;;;;;;5015269;28;20053;-48
2023/01/30 02:10:59;;;;;;;25.63;9.82;;;6.50;99.90;;;;;;5017402;28;20290;-50
2023/01/30 02:13:26;;;;;;;27.77;10.35;;;6.30;99.90;;;;;;5015048;28;20049;-44
2023/01/30 02:15:53;;;;;;;27.35;10.07;;;6.40;99.90;;;;;;5017905;28;20060;-55
2023/01/30 02:18:20;;;;;;;35.55;9.60;;;6.30;99.90;;;;;;5016028;28;20084;-49
2023/01/30 02:21:05;;;;;;;26.20;8.95;;;6.40;99.90;;;;;;5017156;28;20053;-50
2023/01/30 02:23:49;;;;;;;28.63;8.95;;;6.40;99.90;;;;;;4994643;28;20604;-46
2023/01/30 02:26:33;;;;;;;32.67;9.40;;;6.50;99.90;;;;;;4994308;28;20472;-44
2023/01/30 02:29:41;;;;;;;31.10;9.77;;;6.40;99.90;;;;;;4993342;28;20053;-44
2023/01/30 02:32:27;;;;;;;35.90;9.15;;;6.30;99.90;;;;;;4994282;28;20053;-46
2023/01/30 02:35:02;;;;;;;34.97;8.70;;;6.30;99.90;;;;;;4994266;28;20076;-47
2023/01/30 02:37:42;;;;;;;29.08;7.53;;;6.50;99.90;;;;;;4992567;28;20136;-47
2023/01/30 02:40:44;;;;;;;34.45;7.75;;;6.50;99.90;;;;;;4994523;28;20054;-46
2023/01/30 02:43:36;;;;;;;34.53;8.23;;;6.40;99.90;;;;;;4994270;28;20483;-47
2023/01/30 02:46:17;;;;;;;35.28;9.30;;;6.30;99.90;;;;;;5001022;28;20109;-46
2023/01/30 02:48:45;;;;;;;29.23;7.13;;;6.50;99.90;;;;;;5003159;28;20068;-50
2023/01/30 02:51:16;;;;;;;28.65;7.13;;;6.40;99.90;;;;;;5004696;28;20454;-49
2023/01/30 02:53:42;;;;;;;26.65;7.43;;;6.60;99.90;;;;;;4993258;28;20251;-46
2023/01/30 02:56:08;;;;;;;34.45;8.15;;;6.60;99.90;;;;;;4977460;28;20050;-45
2023/01/30 02:58:59;;;;;;;33.08;7.97;;;6.60;99.90;;;;;;4992317;28;20060;-48
2023/01/30 03:01:36;;;;;;;28.08;8.48;;;6.40;99.90;;;;;;4999462;28;20513;-47
2023/01/30 03:04:26;;;;;;;27.85;7.70;;;6.40;99.90;;;;;;5005619;28;20104;-48
2023/01/30 03:07:16;;;;;;;29.25;7.43;;;6.40;99.90;;;;;;5030356;28;20150;-50
2023/01/30 03:10:19;;;;;;;29.38;7.97;;;6.40;99.90;;;;;;5014385;28;20037;-48
2023/01/30 03:12:57;;;;;;;26.77;7.82;;;6.60;99.90;;;;;;5007048;28;20490;-44
2023/01/30 03:15:35;;;;;;;27.80;8.07;;;6.60;99.90;;;;;;5015374;28;20053;-47
2023/01/30 03:18:02;;;;;;;26.20;7.97;;;6.60;99.90;;;;;;5015399;28;20122;-51
2023/01/30 03:20:28;;;;;;;26.20;7.20;;;6.40;99.90;;;;;;5015414;28;20049;-50
2023/01/30 03:22:54;;;;;;;25.60;7.35;;;6.60;99.90;;;;;;5015456;28;20454;-51
2023/01/30 03:25:22;;;;;;;25.55;7.57;;;6.60;99.90;;;;;;5016473;28;20053;-44
2023/01/30 03:27:50;;;;;;;35.13;8.45;;;6.60;99.90;;;;;;5012916;28;20059;-48
2023/01/30 03:30:16;;;;;;;21.40;6.70;;;6.30;99.90;;;;;;5015590;28;20625;-51
2023/01/30 03:32:42;;;;;;;26.23;6.45;;;6.30;99.90;;;;;;5015607;28;20059;-49
2023/01/30 03:35:08;;;;;;;18.30;5.47;;;6.30;99.90;;;;;;5015349;28;20411;-49
2023/01/30 03:37:35;;;;;;;40.83;8.23;;;6.30;99.90;;;;;;5014896;28;20567;-49
2023/01/30 03:40:01;;;;;;;27.25;6.53;;;6.20;99.90;;;;;;5014192;28;20412;-48
2023/01/30 03:42:27;;;;;;;26.85;6.70;;;6.10;99.90;;;;;;5015544;28;20049;-47
2023/01/30 03:44:52;;;;;;;25.75;6.68;;;6.10;99.90;;;;;;5015838;28;20045;-47
2023/01/30 03:47:18;;;;;;;25.75;7.10;;;6.20;99.90;;;;;;5014646;28;20068;-44
2023/01/30 03:49:44;;;;;;;21.70;5.88;;;6.30;99.90;;;;;;5014886;28;20428;-46
2023/01/30 03:52:09;;;;;;;27.52;5.97;;;6.30;99.90;;;;;;5015406;28;20423;-50
2023/01/30 03:54:35;;;;;;;21.08;5.57;;;6.20;99.90;;;;;;5015190;28;20416;-47
2023/01/30 03:57:00;;;;;;;24.60;6.13;;;6.20;99.90;;;;;;5015204;28;20507;-49
2023/01/30 03:59:26;;;;;;;30.65;5.80;;;6.20;99.90;;;;;;5014084;28;20091;-49
2023/01/30 04:01:52;;;;;;;26.95;5.55;;;6.20;99.90;;;;;;5013886;28;20164;-49
2023/01/30 04:04:17;;;;;;;21.92;5.95;;;6.10;99.90;;;;;;5014471;28;20381;-46
2023/01/30 04:06:43;;;;;;;29.50;7.13;;;6.00;99.90;;;;;;5014816;28;20079;-47
2023/01/30 04:09:09;;;;;;;26.15;7.03;;;6.00;99.90;;;;;;5012482;28;20053;-47
2023/01/30 04:11:34;;;;;;;25.92;5.22;;;6.10;99.90;;;;;;5007252;28;20475;-46
2023/01/30 04:14:00;;;;;;;23.67;5.05;;;6.00;99.90;;;;;;5015464;28;20515;-50
2023/01/30 04:16:26;;;;;;;20.08;5.22;;;6.00;99.90;;;;;;5015275;28;20057;-50
2023/01/30 04:18:52;;;;;;;17.83;4.95;;;6.00;99.90;;;;;;5028505;28;20049;-49
2023/01/30 04:21:18;;;;;;;24.02;6.57;;;6.00;99.90;;;;;;5014544;28;20060;-46
2023/01/30 04:23:44;;;;;;;30.00;5.43;;;6.00;99.90;;;;;;5014825;28;20100;-45
2023/01/30 04:26:10;;;;;;;29.02;6.57;;;6.00;99.90;;;;;;5013929;28;20081;-47
2023/01/30 04:28:36;;;;;;;25.65;5.55;;;6.00;99.90;;;;;;5013596;28;20057;-46
2023/01/30 04:31:02;;;;;;;24.63;5.10;;;6.00;99.90;;;;;;5014778;28;20045;-51
2023/01/30 04:33:28;;;;;;;28.38;7.50;;;5.90;99.90;;;;;;5013965;28;20099;-48
2023/01/30 04:35:55;;;;;;;27.85;5.57;;;5.70;99.90;;;;;;5013660;28;20502;-45
2023/01/30 04:38:22;;;;;;;24.90;5.80;;;5.60;99.90;;;;;;5011930;28;20068;-45
2023/01/30 04:40:53;;;;;;;27.95;5.50;;;5.60;99.90;;;;;;5012755;28;20061;-46
2023/01/30 04:43:20;;;;;;;37.63;5.95;;;5.60;99.90;;;;;;5014557;28;20059;-45
2023/01/30 04:45:48;;;;;;;23.00;6.10;;;5.60;99.90;;;;;;5014183;28;20049;-45
2023/01/30 04:48:14;;;;;;;27.42;6.25;;;5.40;99.90;;;;;;5013650;28;20470;-45
2023/01/30 04:50:42;;;;;;;23.23;5.60;;;5.40;99.90;;;;;;5012649;28;20124;-50
2023/01/30 04:53:08;;;;;;;22.90;5.45;;;5.40;99.90;;;;;;5013507;28;20057;-49
2023/01/30 04:55:34;;;;;;;24.20;4.78;;;5.30;99.90;;;;;;5014521;28;20064;-48
2023/01/30 04:58:00;;;;;;;30.85;5.80;;;5.30;99.90;;;;;;5013287;28;20478;-44
2023/01/30 05:00:26;;;;;;;32.47;6.28;;;5.30;99.90;;;;;;5012090;28;20053;-49
2023/01/30 05:02:52;;;;;;;25.83;5.47;;;5.20;99.90;;;;;;5013820;28;20061;-47
2023/01/30 05:05:18;;;;;;;27.33;5.53;;;5.20;99.90;;;;;;5012786;28;20499;-48
2023/01/30 05:07:43;;;;;;;34.10;5.82;;;5.20;99.90;;;;;;5012541;28;20095;-47
2023/01/30 05:10:10;;;;;;;27.58;5.38;;;5.20;99.90;;;;;;5014304;28;20385;-47
2023/01/30 05:12:35;;;;;;;26.85;5.15;;;5.20;99.90;;;;;;5007101;28;20115;-50
2023/01/30 05:15:01;;;;;;;26.00;5.90;;;5.10;99.90;;;;;;5014092;28;20575;-45
2023/01/30 05:17:27;;;;;;;22.35;4.57;;;5.10;99.90;;;;;;5012558;28;20049;-47
2023/01/30 05:19:52;;;;;;;29.77;6.15;;;5.10;99.90;;;;;;5012896;28;20128;-49
2023/01/30 05:22:18;;;;;;;30.15;5.40;;;5.20;99.90;;;;;;5013375;28;20045;-45
2023/01/30 05:24:44;;;;;;;28.30;6.47;;;5.10;99.90;;;;;;5028976;28;20084;-49
2023/01/30 05:27:09;;;;;;;28.45;5.32;;;5.10;99.90;;;;;;5012967;28;20116;-48
2023/01/30 05:29:35;;;;;;;31.63;5.45;;;5.10;99.90;;;;;;5013660;28;20428;-49
2023/01/30 05:32:02;;;;;;;26.33;5.75;;;5.00;99.90;;;;;;5013958;28;20565;-47
2023/01/30 05:34:27;;;;;;;33.45;5.88;;;5.00;99.90;;;;;;5013210;28;20060;-47
2023/01/30 05:36:53;;;;;;;26.80;5.43;;;5.00;99.90;;;;;;5012006;28;20428;-50
2023/01/30 05:39:19;;;;;;;23.90;5.63;;;5.00;99.90;;;;;;5012892;28;20157;-46
2023/01/30 05:41:44;;;;;;;21.55;5.07;;;5.00;99.90;;;;;;5013479;28;20053;-50
2023/01/30 05:44:10;;;;;;;25.20;5.28;;;5.00;99.90;;;;;;5013534;28;20676;-50
2023/01/30 05:46:36;;;;;;;27.23;5.53;;;4.90;99.90;;;;;;5011752;28;20049;-48
2023/01/30 05:49:03;;;;;;;29.73;5.25;;;4.90;99.90;;;;;;5012479;28;20136;-48
2023/01/30 05:51:29;;;;;;;26.52;5.00;;;4.90;99.90;;;;;;5013157;28;20056;-48
2023/01/30 05:53:55;;;;;;;26.75;4.85;;;4.90;99.90;;;;;;5013299;28;20234;-46
2023/01/30 05:56:21;;;;;;;31.60;6.47;;;4.80;99.90;;;;;;5028811;28;20057;-48
2023/01/30 05:58:52;;;;;;;29.58;5.05;;;4.80;99.90;;;;;;5012204;28;20056;-45
2023/01/30 06:01:18;;;;;;;27.08;5.15;;;4.80;99.90;;;;;;5013749;28;20041;-47
2023/01/30 06:03:44;;;;;;;24.75;5.60;;;4.80;99.90;;;;;;5013470;28;20045;-45
2023/01/30 06:06:11;;;;;;;28.27;6.70;;;4.80;99.90;;;;;;5013866;28;20053;-43
2023/01/30 06:08:37;;;;;;;30.35;5.00;;;4.90;99.90;;;;;;5010650;28;20396;-45
2023/01/30 06:11:12;;;;;;;31.77;4.85;;;4.90;99.90;;;;;;5007803;28;20058;-46
2023/01/30 06:13:38;;;;;;;26.38;5.57;;;4.90;99.90;;;;;;5012850;28;20057;-44
2023/01/30 06:16:04;;;;;;;27.83;5.20;;;4.90;99.90;;;;;;5013027;28;20571;-45
2023/01/30 06:18:30;;;;;;;30.60;5.70;;;4.90;99.90;;;;;;5011062;28;20049;-48
2023/01/30 06:20:56;;;;;;;24.77;5.20;;;4.80;99.90;;;;;;5012887;28;20054;-49
2023/01/30 06:23:24;;;;;;;31.30;5.43;;;4.90;99.90;;;;;;5011564;28;20057;-48
2023/01/30 06:25:51;;;;;;;35.30;5.78;;;4.90;99.90;;;;;;5013189;28;20041;-44
2023/01/30 06:28:18;;;;;;;28.00;5.55;;;5.00;99.90;;;;;;5011628;28;20496;-47
2023/01/30 06:30:44;;;;;;;28.60;5.63;;;5.00;99.90;;;;;;5012580;28;20057;-47
2023/01/30 06:33:10;;;;;;;23.85;5.32;;;5.00;99.90;;;;;;5011150;28;20050;-47
2023/01/30 06:35:39;;;;;;;33.53;5.97;;;5.00;99.90;;;;;;5013650;28;20081;-49
2023/01/30 06:38:08;;;;;;;28.60;4.85;;;4.90;99.90;;;;;;5011576;28;20139;-50
2023/01/30 06:40:34;;;;;;;36.08;5.15;;;4.90;99.90;;;;;;5013167;28;20542;-48
2023/01/30 06:42:59;;;;;;;23.40;4.80;;;4.90;99.90;;;;;;5013178;28;20052;-44
2023/01/30 06:45:25;;;;;;;36.40;5.35;;;4.90;99.90;;;;;;5012837;28;20107;-48
2023/01/30 06:47:53;;;;;;;33.90;6.65;;;4.80;99.90;;;;;;5010805;28;20132;-45
2023/01/30 06:50:21;;;;;;;30.15;5.97;;;4.80;99.90;;;;;;5015209;28;20431;-45
2023/01/30 06:52:48;;;;;;;30.88;5.00;;;4.80;99.90;;;;;;5016439;28;20137;-49
2023/01/30 06:55:16;;;;;;;34.65;5.82;;;4.80;99.90;;;;;;5016761;28;20469;-44
2023/01/30 06:57:42;;;;;;;33.58;6.43;;;4.80;99.90;;;;;;5014612;28;20160;-47
2023/01/30 07:00:14;;;;;;;29.38;5.95;;;4.80;99.90;;;;;;5016410;28;20448;-47
2023/01/30 07:02:40;;;;;;;29.48;5.63;;;4.80;99.90;;;;;;5016891;28;20468;-46
2023/01/30 07:05:07;;;;;;;27.80;5.50;;;4.80;99.90;;;;;;5015898;28;20424;-45
2023/01/30 07:07:34;;;;;;;28.83;4.95;;;4.90;99.90;;;;;;5015161;28;20547;-50
2023/01/30 07:10:00;;;;;;;26.35;5.82;;;4.90;99.90;;;;;;5014194;28;20068;-46
2023/01/30 07:12:26;;;;;;;30.05;5.82;;;5.00;99.90;;;;;;5014485;28;20426;-48
2023/01/30 07:14:53;;;;;;;31.58;5.85;;;5.00;99.90;;;;;;5016099;28;20522;-48
2023/01/30 07:17:22;;;;;;;27.38;4.95;;;5.10;99.90;;;;;;5015215;28;20597;-50
2023/01/30 07:19:48;;;;;;;27.00;5.10;;;5.10;99.90;;;;;;5016048;28;20559;-48
2023/01/30 07:22:14;;;;;;;28.60;6.00;;;5.20;99.90;;;;;;5015775;28;20053;-48
2023/01/30 07:24:41;;;;;;;32.13;5.53;;;5.30;99.90;;;;;;5013526;28;20536;-44
2023/01/30 07:27:08;;;;;;;34.15;6.65;;;5.30;99.90;;;;;;5013854;28;20563;-48
2023/01/30 07:29:38;;;;;;;32.08;6.45;;;5.30;99.90;;;;;;5013465;28;20618;-48
2023/01/30 07:32:05;;;;;;;27.70;5.43;;;5.30;99.90;;;;;;5014899;28;20037;-50
2023/01/30 07:34:31;;;;;;;29.27;6.75;;;5.40;99.90;;;;;;5013758;28;20439;-46
2023/01/30 07:36:56;;;;;;;26.65;5.97;;;5.40;99.90;;;;;;5014481;28;20077;-46
2023/01/30 07:39:22;;;;;;;34.65;6.70;;;5.40;99.90;;;;;;5014979;28;20490;-51
2023/01/30 07:41:48;;;;;;;31.98;6.13;;;5.40;99.90;;;;;;5015260;28;20049;-48
2023/01/30 07:44:13;;;;;;;31.13;5.88;;;5.40;99.90;;;;;;5015352;28;20041;-50
2023/01/30 07:46:39;;;;;;;29.48;6.80;;;5.40;99.90;;;;;;5014572;28;20479;-49
2023/01/30 07:49:07;;;;;;;30.42;6.20;;;5.40;99.90;;;;;;5014061;28;20577;-50
2023/01/30 07:51:33;;;;;;;28.63;5.15;;;5.40;99.90;;;;;;5005830;28;20060;-50
2023/01/30 07:54:02;;;;;;;33.08;5.78;;;5.40;99.90;;;;;;5014135;28;20500;-47
2023/01/30 07:56:29;;;;;;;27.75;5.45;;;5.40;99.90;;;;;;5011969;28;20049;-49
2023/01/30 07:58:55;;;;;;;35.28;5.97;;;5.40;99.90;;;;;;5014128;28;20037;-44
2023/01/30 08:01:20;;;;;;;33.33;7.20;;;5.40;99.90;;;;;;5014787;28;20095;-49
2023/01/30 08:03:48;;;;;;;26.67;5.85;;;5.40;99.90;;;;;;5010311;28;20041;-46
2023/01/30 08:06:14;;;;;;;29.70;7.47;;;5.50;99.90;;;;;;5014914;28;20212;-47
2023/01/30 08:08:40;;;;;;;34.40;5.75;;;5.50;99.90;;;;;;5011051;28;20440;-45
2023/01/30 08:11:05;;;;;;;29.00;7.18;;;5.50;99.90;;;;;;5011130;28;20045;-50
2023/01/30 08:13:31;;;;;;;31.88;6.03;;;5.60;99.90;;;;;;5010200;28;20155;-47
2023/01/30 08:16:01;;;;;;;27.20;5.28;;;5.60;99.90;;;;;;5011237;28;20045;-46
2023/01/30 08:18:33;;;;;;;27.73;5.68;;;5.70;99.90;;;;;;4999676;28;20060;-44
2023/01/30 08:21:00;;;;;;;36.17;9.93;;;5.70;99.90;;;;;;5006148;28;20041;-46
2023/01/30 08:23:26;;;;;;;30.25;7.35;;;5.70;99.90;;;;;;5009503;28;21121;-45
2023/01/30 08:25:56;;;;;;;35.10;9.68;;;5.70;99.90;;;;;;5009401;28;20084;-47
2023/01/30 08:28:22;;;;;;;31.98;6.07;;;5.70;99.90;;;;;;4997327;28;20053;-50
2023/01/30 08:30:48;;;;;;;28.10;5.72;;;5.70;99.90;;;;;;5010474;28;20071;-46
2023/01/30 08:33:14;;;;;;;23.65;5.63;;;5.80;99.90;;;;;;5010711;28;20080;-46
2023/01/30 08:35:40;;;;;;;33.80;6.75;;;5.80;99.90;;;;;;5012385;28;20046;-49
2023/01/30 08:38:09;;;;;;;26.60;7.10;;;5.80;99.90;;;;;;5001136;28;20050;-46
2023/01/30 08:40:36;;;;;;;36.53;9.07;;;5.90;99.90;;;;;;5008559;28;20045;-48
2023/01/30 08:43:02;;;;;;;28.30;5.63;;;5.90;99.90;;;;;;5011685;28;20496;-48
2023/01/30 08:45:27;;;;;;;36.28;6.30;;;5.90;99.90;;;;;;5013933;28;20128;-47
2023/01/30 08:47:57;;;;;;;33.63;9.05;;;5.80;99.90;;;;;;5010030;28;20051;-47
2023/01/30 08:50:23;;;;;;;22.50;5.78;;;5.80;99.90;;;;;;5012708;28;20037;-45
2023/01/30 08:52:48;;;;;;;32.78;9.75;;;5.80;99.90;;;;;;5011578;28;20111;-45
2023/01/30 08:55:14;;;;;;;29.52;7.88;;;6.00;99.90;;;;;;5007398;28;20947;-45
2023/01/30 08:57:40;;;;;;;36.50;7.65;;;6.10;99.90;;;;;;5010069;28;20045;-44
2023/01/30 09:00:07;;;;;;;28.35;6.95;;;6.20;99.90;;;;;;5010210;28;20042;-46
2023/01/30 09:02:33;;;;;;;33.05;6.82;;;6.20;99.90;;;;;;5009719;28;20057;-47
2023/01/30 09:04:59;;;;;;;31.85;7.95;;;6.20;99.90;;;;;;5009446;28;20072;-43
2023/01/30 09:07:27;;;;;;;38.08;6.85;;;6.30;99.90;;;;;;5010801;28;20077;-47
2023/01/30 09:09:53;;;;;;;34.55;6.88;;;6.30;99.90;;;;;;5007201;28;20417;-48
2023/01/30 09:12:19;;;;;;;32.58;6.80;;;6.30;99.90;;;;;;5007602;28;20045;-46
2023/01/30 09:14:44;;;;;;;27.73;7.53;;;6.30;99.90;;;;;;5011569;28;20052;-43
2023/01/30 09:17:10;;;;;;;34.40;7.78;;;6.20;99.90;;;;;;5010817;28;20048;-45
2023/01/30 09:19:36;;;;;;;34.70;7.63;;;6.20;99.90;;;;;;5010376;28;20463;-50
2023/01/30 09:22:02;;;;;;;32.53;6.35;;;6.20;99.90;;;;;;5011568;28;20558;-47
2023/01/30 09:24:28;;;;;;;36.92;7.18;;;6.20;99.90;;;;;;5007254;28;20393;-49
2023/01/30 09:26:56;;;;;;;33.13;6.43;;;6.30;99.90;;;;;;5009002;28;20053;-47
2023/01/30 09:29:22;;;;;;;37.72;6.93;;;6.40;99.90;;;;;;5006189;28;20054;-49
2023/01/30 09:31:48;;;;;;;35.80;7.32;;;6.60;99.90;;;;;;5008755;28;20136;-45
2023/01/30 09:34:14;;;;;;;32.70;6.05;;;6.80;99.90;;;;;;5010093;28;20069;-44
2023/01/30 09:36:40;;;;;;;35.03;6.78;;;6.90;99.90;;;;;;5001182;28;20871;-45
2023/01/30 09:39:06;;;;;;;34.88;6.65;;;6.90;99.90;;;;;;5004421;28;20054;-49
2023/01/30 09:41:51;;;;;;;43.67;7.40;;;6.90;99.90;;;;;;5008275;28;20045;-46
2023/01/30 09:44:30;;;;;;;27.85;5.95;;;6.90;99.90;;;;;;5010848;28;20064;-47
2023/01/30 09:47:15;;;;;;;26.58;7.13;;;6.90;99.90;;;;;;5008800;28;20479;-48
2023/01/30 09:49:41;;;;;;;31.70;6.32;;;6.80;99.90;;;;;;5013388;28;20513;-46
2023/01/30 09:52:21;;;;;;;44.47;6.90;;;6.90;99.90;;;;;;5011658;28;20041;-49
2023/01/30 09:54:47;;;;;;;31.73;6.95;;;6.90;99.90;;;;;;5013485;28;20115;-44
2023/01/30 09:57:21;;;;;;;28.67;6.20;;;6.80;99.90;;;;;;5011736;28;20497;-45
2023/01/30 09:59:55;;;;;;;89.38;41.50;;;6.80;99.90;;;;;;5013113;28;20091;-52
2023/01/30 10:02:48;;;;;;;62.92;20.98;;;6.80;99.90;;;;;;5001662;28;20661;-48
2023/01/30 10:05:14;;;;;;;123.32;54.47;;;6.80;99.90;;;;;;5010745;28;20496;-46
2023/01/30 10:07:43;;;;;;;64.82;33.17;;;6.80;99.90;;;;;;5012125;28;20053;-45
2023/01/30 10:10:40;;;;;;;51.80;19.80;;;6.90;99.90;;;;;;5013226;28;20053;-47
2023/01/30 10:13:24;;;;;;;32.83;7.32;;;6.90;99.90;;;;;;5005563;28;20104;-50
2023/01/30 10:16:25;;;;;;;27.85;6.60;;;6.90;99.90;;;;;;5013973;28;20595;-49
2023/01/30 10:19:09;;;;;;;36.13;6.90;;;6.90;99.90;;;;;;5013258;28;20054;-48
2023/01/30 10:21:46;;;;;;;29.42;6.68;;;7.10;99.90;;;;;;5013361;28;20045;-50
2023/01/30 10:24:19;;;;;;;29.10;7.18;;;7.20;99.90;;;;;;5010125;28;20049;-51
2023/01/30 10:26:46;;;;;;;35.25;6.70;;;7.20;99.90;;;;;;5017114;28;20045;-45
2023/01/30 10:29:20;;;;;;;32.78;8.02;;;7.20;99.90;;;;;;5017632;28;20096;-47
2023/01/30 10:31:59;;;;;;;37.75;7.22;;;7.20;99.90;;;;;;5017665;28;20076;-50
2023/01/30 10:34:33;;;;;;;29.08;7.22;;;7.20;99.90;;;;;;5017293;28;20045;-44
2023/01/30 10:37:24;;;;;;;33.80;6.22;;;7.30;99.90;;;;;;5016176;28;20400;-44
2023/01/30 10:40:04;;;;;;;39.42;7.75;;;7.30;99.90;;;;;;4993674;28;20061;-48
2023/01/30 10:42:41;;;;;;;33.83;7.43;;;7.30;99.90;;;;;;4977145;28;20503;-44
2023/01/30 10:45:19;;;;;;;30.90;7.93;;;7.40;99.90;;;;;;4993941;28;20058;-46
2023/01/30 10:48:17;;;;;;;33.28;7.00;;;7.40;99.90;;;;;;4992732;28;20115;-44
2023/01/30 10:50:54;;;;;;;36.17;8.77;;;7.50;99.90;;;;;;4992602;28;20144;-48
2023/01/30 10:53:41;;;;;;;40.95;6.97;;;7.60;99.90;;;;;;4993288;28;20119;-47
2023/01/30 10:56:19;;;;;;;39.05;7.65;;;7.70;99.90;;;;;;4984967;28;20474;-45
2023/01/30 10:58:59;;;;;;;29.08;6.72;;;7.70;99.90;;;;;;4986587;28;20620;-50
2023/01/30 11:01:36;;;;;;;32.95;8.07;;;7.70;99.90;;;;;;4986186;28;20557;-48
2023/01/30 11:04:06;;;;;;;33.60;6.80;;;7.70;99.90;;;;;;4999362;28;20060;-45
2023/01/30 11:06:33;;;;;;;24.55;5.60;;;7.50;99.90;;;;;;4998600;28;20555;-50
2023/01/30 11:08:59;;;;;;;24.38;6.43;;;7.40;99.90;;;;;;4992270;28;20049;-46
2023/01/30 11:11:49;;;;;;;30.60;6.43;;;7.30;99.90;;;;;;4976150;28;20155;-46
2023/01/30 11:14:15;;;;;;;30.15;6.45;;;7.30;99.90;;;;;;4935119;29;20082;-46
2023/01/30 11:16:48;;;;;;;31.02;6.68;;;7.10;99.90;;;;;;4941338;28;20625;-47
2023/01/30 11:19:17;;;;;;;25.85;5.72;;;7.00;99.90;;;;;;4953805;28;20054;-45
2023/01/30 11:21:50;;;;;;;29.08;5.90;;;6.90;99.90;;;;;;4953733;28;20043;-51
2023/01/30 11:24:20;;;;;;;;;;;6.70;99.90;;;;;;4954295;28;20102;-44
2023/01/30 11:26:46;;;;;;;33.83;6.10;;;6.60;99.90;;;;;;4937439;28;20487;-45
2023/01/30 11:29:26;;;;;;;28.90;5.75;;;6.70;99.90;;;;;;4953524;28;20132;-45
2023/01/30 11:31:53;;;;;;;45.28;12.95;;;6.90;99.90;;;;;;4937240;28;20069;-50
2023/01/30 11:34:21;;;;;;;62.47;24.50;;;7.00;99.90;;;;;;4954000;28;20133;-43
2023/01/30 11:36:48;;;;;;;57.85;23.33;;;7.20;99.90;;;;;;4952897;28;20110;-53
2023/01/30 11:39:14;;;;;;;93.55;43.13;;;7.20;99.90;;;;;;4953452;28;20066;-46
2023/01/30 11:42:03;;;;;;;63.50;24.42;;;7.20;99.90;;;;;;4954112;28;20130;-45
2023/01/30 11:44:34;;;;;;;68.07;24.58;;;7.10;99.90;;;;;;4953712;28;20136;-47
2023/01/30 11:47:06;;;;;;;36.03;11.38;;;7.10;99.90;;;;;;4952770;28;20057;-49
2023/01/30 11:49:38;;;;;;;56.97;31.77;;;6.70;99.90;;;;;;4954819;28;20132;-48
2023/01/30 11:52:05;;;;;;;56.88;32.45;;;6.30;99.90;;;;;;5004578;28;20107;-47
2023/01/30 11:54:40;;;;;;;16.65;6.53;;;6.10;99.90;;;;;;5016583;28;20107;-50
2023/01/30 11:57:11;;;;;;;28.65;12.05;;;6.00;99.90;;;;;;5014427;28;20064;-48
2023/01/30 11:59:48;;;;;;;31.90;6.18;;;6.00;99.90;;;;;;5015090;28;20053;-45
2023/01/30 12:02:24;;;;;;;27.90;9.90;;;6.10;99.90;;;;;;5014908;28;20092;-46
2023/01/30 12:04:54;;;;;;;32.95;5.57;;;6.20;99.90;;;;;;5015540;28;20118;-48
2023/01/30 12:07:26;;;;;;;31.38;8.20;;;6.30;99.90;;;;;;5013510;28;20115;-49
2023/01/30 12:09:54;;;;;;;35.60;8.25;;;6.40;99.90;;;;;;5012820;28;20053;-51
2023/01/30 12:12:56;;;;;;;33.15;8.32;;;6.40;99.90;;;;;;5010948;28;20484;-46
2023/01/30 12:15:34;;;;;;;24.73;6.88;;;6.30;99.90;;;;;;4991297;28;20546;-48
2023/01/30 12:18:04;;;;;;;24.80;6.25;;;6.30;99.90;;;;;;4989592;28;20045;-51
2023/01/30 12:20:36;;;;;;;20.25;5.43;;;6.30;99.90;;;;;;4991301;28;20058;-44
2023/01/30 12:23:17;;;;;;;20.67;4.95;;;6.30;99.90;;;;;;4988707;28;20466;-48
2023/01/30 12:26:11;;;;;;;20.90;5.68;;;6.30;99.90;;;;;;4989442;28;20072;-48
2023/01/30 12:29:14;;;;;;;24.60;5.68;;;6.30;99.90;;;;;;4975011;28;20058;-48
2023/01/30 12:31:48;;;;;;;23.60;7.03;;;6.40;99.90;;;;;;4991358;28;20061;-46
2023/01/30 12:34:14;;;;;;;24.52;6.63;;;6.40;99.90;;;;;;4991089;28;20143;-44
2023/01/30 12:37:01;;;;;;;28.90;7.85;;;6.50;99.90;;;;;;4974413;28;20329;-46
2023/01/30 12:40:01;;;;;;;24.75;6.10;;;6.60;99.90;;;;;;4991729;28;20144;-48
2023/01/30 12:42:33;;;;;;;22.00;5.50;;;6.60;99.90;;;;;;4990868;28;20057;-47
2023/01/30 12:45:05;;;;;;;30.17;6.65;;;6.70;99.90;;;;;;4991238;28;20058;-47
2023/01/30 12:48:04;;;;;;;26.08;5.05;;;6.70;99.90;;;;;;4989539;28;20123;-49
2023/01/30 12:50:33;;;;;;;24.48;5.30;;;6.80;99.90;;;;;;4972039;28;20537;-43
2023/01/30 12:53:07;;;;;;;26.20;5.57;;;6.90;99.90;;;;;;4971760;28;20155;-47
2023/01/30 12:55:41;;;;;;;28.73;6.65;;;7.00;99.90;;;;;;4971972;28;20105;-46
2023/01/30 12:58:16;;;;;;;32.38;6.43;;;7.00;99.90;;;;;;4954315;28;20057;-46
2023/01/30 13:00:48;;;;;;;38.13;7.03;;;7.00;99.90;;;;;;4971644;28;20062;-46
2023/01/30 13:03:31;;;;;;;32.95;13.02;;;7.10;99.90;;;;;;4971530;28;20089;-48
2023/01/30 13:06:25;;;;;;;40.53;11.50;;;7.10;99.90;;;;;;4945470;28;20058;-49
2023/01/30 13:09:08;;;;;;;69.93;30.30;;;7.20;99.90;;;;;;4971998;28;20084;-45
2023/01/30 13:12:05;;;;;;;60.03;29.00;;;7.20;99.90;;;;;;4971599;28;20617;-47